createdAt,value
2017-10-24T00:00:30.428Z,1010.63
2017-10-24T00:01:31.850Z,1010.64
2017-10-24T00:02:33.266Z,1010.65
2017-10-24T00:03:34.683Z,1010.65
2017-10-24T00:04:36.110Z,1010.65
2017-10-24T00:05:37.539Z,1010.63
2017-10-24T00:06:38.956Z,1010.65
2017-10-24T00:07:40.378Z,1010.67
2017-10-24T00:08:41.796Z,1010.67
2017-10-24T00:09:43.229Z,1010.63
2017-10-24T00:10:44.653Z,1010.60
2017-10-24T00:11:46.117Z,1010.61
2017-10-24T00:12:47.541Z,1010.63
2017-10-24T00:13:48.975Z,1010.64
2017-10-24T00:14:50.412Z,1010.64
2017-10-24T00:15:51.833Z,1010.66
2017-10-24T00:16:53.254Z,1010.67
2017-10-24T00:17:54.679Z,1010.70
2017-10-24T00:18:56.097Z,1010.70
2017-10-24T00:19:57.520Z,1010.66
2017-10-24T00:20:58.936Z,1010.69
2017-10-24T00:22:00.354Z,1010.68
2017-10-24T00:23:01.776Z,1010.62
2017-10-24T00:24:03.195Z,1010.64
2017-10-24T00:25:04.615Z,1010.64
2017-10-24T00:26:06.035Z,1010.63
2017-10-24T00:27:07.459Z,1010.63
2017-10-24T00:28:08.871Z,1010.63
2017-10-24T00:29:10.287Z,1010.65
2017-10-24T00:30:11.703Z,1010.58
2017-10-24T00:31:13.121Z,1010.63
2017-10-24T00:32:14.540Z,1010.64
2017-10-24T00:33:15.966Z,1010.63
2017-10-24T00:34:17.383Z,1010.62
2017-10-24T00:35:18.797Z,1010.63
2017-10-24T00:36:20.219Z,1010.61
2017-10-24T00:37:21.704Z,1010.62
2017-10-24T00:38:23.124Z,1010.61
2017-10-24T00:39:24.549Z,1010.64
2017-10-24T00:40:25.977Z,1010.59
2017-10-24T00:41:27.419Z,1010.60
2017-10-24T00:42:28.836Z,1010.54
2017-10-24T00:43:30.277Z,1010.62
2017-10-24T00:44:31.695Z,1010.62
2017-10-24T00:45:33.118Z,1010.64
2017-10-24T00:46:34.533Z,1010.64
2017-10-24T00:47:35.959Z,1010.66
2017-10-24T00:48:37.374Z,1010.66
2017-10-24T00:49:38.786Z,1010.66
2017-10-24T00:50:40.207Z,1010.62
2017-10-24T00:51:41.626Z,1010.65
2017-10-24T00:52:43.059Z,1010.67
2017-10-24T00:53:44.480Z,1010.67
2017-10-24T00:54:45.892Z,1010.68
2017-10-24T00:55:47.319Z,1010.72
2017-10-24T00:56:48.745Z,1010.72
2017-10-24T00:57:50.166Z,1010.70
2017-10-24T00:58:51.583Z,1010.74
2017-10-24T00:59:52.998Z,1010.71
2017-10-24T01:00:54.424Z,1010.77
2017-10-24T01:01:55.840Z,1010.76
2017-10-24T01:02:57.251Z,1010.76
2017-10-24T01:03:58.674Z,1010.75
2017-10-24T01:05:00.086Z,1010.79
2017-10-24T01:06:01.503Z,1010.79
2017-10-24T01:07:02.914Z,1010.74
2017-10-24T01:08:04.337Z,1010.75
2017-10-24T01:09:05.756Z,1010.70
2017-10-24T01:10:07.175Z,1010.72
2017-10-24T01:11:08.599Z,1010.68
2017-10-24T01:12:10.017Z,1010.67
2017-10-24T01:13:11.438Z,1010.62
2017-10-24T01:14:12.872Z,1010.58
2017-10-24T01:15:14.290Z,1010.60
2017-10-24T01:16:15.720Z,1010.59
2017-10-24T01:17:17.140Z,1010.60
2017-10-24T01:18:18.556Z,1010.55
2017-10-24T01:19:19.976Z,1010.60
2017-10-24T01:20:21.395Z,1010.59
2017-10-24T01:21:22.817Z,1010.59
2017-10-24T01:22:24.236Z,1010.61
2017-10-24T01:23:25.664Z,1010.64
2017-10-24T01:24:27.085Z,1010.62
2017-10-24T01:25:28.503Z,1010.61
2017-10-24T01:26:29.927Z,1010.65
2017-10-24T01:27:31.359Z,1010.64
2017-10-24T01:28:32.784Z,1010.61
2017-10-24T01:29:34.206Z,1010.65
2017-10-24T01:30:35.627Z,1010.64
2017-10-24T01:31:37.057Z,1010.64
2017-10-24T01:32:38.535Z,1010.65
2017-10-24T01:33:39.957Z,1010.64
2017-10-24T01:34:41.373Z,1010.64
2017-10-24T01:35:42.788Z,1010.57
2017-10-24T01:36:44.214Z,1010.57
2017-10-24T01:37:45.650Z,1010.54
2017-10-24T01:38:47.066Z,1010.57
2017-10-24T01:39:48.484Z,1010.57
2017-10-24T01:40:49.904Z,1010.58
2017-10-24T01:41:51.327Z,1010.63
2017-10-24T01:42:52.750Z,1010.63
2017-10-24T01:43:54.170Z,1010.61
2017-10-24T01:44:55.594Z,1010.59
2017-10-24T01:45:57.011Z,1010.61
2017-10-24T01:46:58.440Z,1010.57
2017-10-24T01:47:59.862Z,1010.58
2017-10-24T01:49:01.278Z,1010.60
2017-10-24T01:50:02.707Z,1010.57
2017-10-24T01:51:04.129Z,1010.56
2017-10-24T01:52:05.555Z,1010.55
2017-10-24T01:53:06.979Z,1010.53
2017-10-24T01:54:08.396Z,1010.52
2017-10-24T01:55:09.776Z,1010.51
2017-10-24T01:56:11.191Z,1010.50
2017-10-24T01:57:12.656Z,1010.48
2017-10-24T01:58:14.036Z,1010.47
2017-10-24T01:59:15.455Z,1010.53
2017-10-24T02:00:16.867Z,1010.44
2017-10-24T02:01:18.285Z,1010.49
2017-10-24T02:02:19.703Z,1010.53
2017-10-24T02:03:21.119Z,1010.55
2017-10-24T02:04:22.553Z,1010.60
2017-10-24T02:05:23.971Z,1010.60
2017-10-24T02:06:25.393Z,1010.62
2017-10-24T02:07:26.810Z,1010.63
2017-10-24T02:08:28.236Z,1010.64
2017-10-24T02:09:29.658Z,1010.60
2017-10-24T02:10:31.073Z,1010.62
2017-10-24T02:11:32.489Z,1010.61
2017-10-24T02:12:33.897Z,1010.65
2017-10-24T02:13:35.319Z,1010.65
2017-10-24T02:14:36.749Z,1010.74
2017-10-24T02:15:38.176Z,1010.67
2017-10-24T02:16:39.583Z,1010.69
2017-10-24T02:17:41.003Z,1010.65
2017-10-24T02:18:42.425Z,1010.63
2017-10-24T02:19:43.853Z,1010.63
2017-10-24T02:20:45.278Z,1010.60
2017-10-24T02:21:46.699Z,1010.64
2017-10-24T02:22:48.122Z,1010.66
2017-10-24T02:23:49.534Z,1010.62
2017-10-24T02:24:50.955Z,1010.60
2017-10-24T02:25:52.366Z,1010.70
2017-10-24T02:26:53.791Z,1010.58
2017-10-24T02:27:55.206Z,1010.64
2017-10-24T02:28:56.627Z,1010.57
2017-10-24T02:29:58.038Z,1010.62
2017-10-24T02:30:59.471Z,1010.59
2017-10-24T02:32:00.888Z,1010.56
2017-10-24T02:33:02.308Z,1010.62
2017-10-24T02:34:03.726Z,1010.61
2017-10-24T02:35:05.143Z,1010.63
2017-10-24T02:36:06.565Z,1010.62
2017-10-24T02:37:07.991Z,1010.66
2017-10-24T02:38:09.416Z,1010.66
2017-10-24T02:39:10.835Z,1010.69
2017-10-24T02:40:12.252Z,1010.62
2017-10-24T02:41:13.676Z,1010.59
2017-10-24T02:42:15.135Z,1010.58
2017-10-24T02:43:16.548Z,1010.57
2017-10-24T02:44:17.975Z,1010.50
2017-10-24T02:45:19.385Z,1010.56
2017-10-24T02:46:20.804Z,1010.49
2017-10-24T02:47:22.266Z,1010.49
2017-10-24T02:48:23.693Z,1010.52
2017-10-24T02:49:25.100Z,1010.51
2017-10-24T02:50:26.521Z,1010.49
2017-10-24T02:51:27.944Z,1010.53
2017-10-24T02:52:29.365Z,1010.49
2017-10-24T02:53:30.786Z,1010.50
2017-10-24T02:54:32.214Z,1010.54
2017-10-24T02:55:33.628Z,1010.52
2017-10-24T02:56:35.054Z,1010.49
2017-10-24T02:57:36.469Z,1010.55
2017-10-24T02:58:37.890Z,1010.47
2017-10-24T02:59:39.308Z,1010.43
2017-10-24T03:00:40.737Z,1010.41
2017-10-24T03:01:42.160Z,1010.45
2017-10-24T03:02:43.582Z,1010.46
2017-10-24T03:03:45.012Z,1010.45
2017-10-24T03:04:46.428Z,1010.50
2017-10-24T03:05:47.839Z,1010.47
2017-10-24T03:06:49.261Z,1010.48
2017-10-24T03:07:50.675Z,1010.52
2017-10-24T03:08:52.059Z,1010.51
2017-10-24T03:09:53.479Z,1010.48
2017-10-24T03:10:54.920Z,1010.49
2017-10-24T03:11:56.333Z,1010.49
2017-10-24T03:12:57.754Z,1010.52
2017-10-24T03:13:59.176Z,1010.53
2017-10-24T03:15:00.601Z,1010.52
2017-10-24T03:16:02.023Z,1010.48
2017-10-24T03:17:03.440Z,1010.48
2017-10-24T03:18:04.865Z,1010.46
2017-10-24T03:19:06.295Z,1010.48
2017-10-24T03:20:07.718Z,1010.48
2017-10-24T03:21:09.146Z,1010.47
2017-10-24T03:22:10.569Z,1010.45
2017-10-24T03:23:11.997Z,1010.42
2017-10-24T03:24:13.409Z,1010.40
2017-10-24T03:25:14.842Z,1010.36
2017-10-24T03:26:16.260Z,1010.37
2017-10-24T03:27:17.680Z,1010.36
2017-10-24T03:28:19.096Z,1010.30
2017-10-24T03:29:20.515Z,1010.33
2017-10-24T03:30:21.938Z,1010.37
2017-10-24T03:31:23.361Z,1010.34
2017-10-24T03:32:24.784Z,1010.29
2017-10-24T03:33:26.216Z,1010.36
2017-10-24T03:34:27.638Z,1010.33
2017-10-24T03:35:29.057Z,1010.27
2017-10-24T03:36:30.490Z,1010.31
2017-10-24T03:37:31.908Z,1010.31
2017-10-24T03:38:33.330Z,1010.32
2017-10-24T03:39:34.738Z,1010.29
2017-10-24T03:40:36.162Z,1010.29
2017-10-24T03:41:37.575Z,1010.32
2017-10-24T03:42:38.993Z,1010.30
2017-10-24T03:43:40.425Z,1010.28
2017-10-24T03:44:41.857Z,1010.29
2017-10-24T03:45:43.272Z,1010.27
2017-10-24T03:46:44.692Z,1010.32
2017-10-24T03:47:46.110Z,1010.33
2017-10-24T03:48:47.533Z,1010.34
2017-10-24T03:49:48.953Z,1010.40
2017-10-24T03:50:50.374Z,1010.34
2017-10-24T03:51:51.796Z,1010.36
2017-10-24T03:52:53.214Z,1010.39
2017-10-24T03:53:54.626Z,1010.39
2017-10-24T03:54:56.049Z,1010.40
2017-10-24T03:55:57.469Z,1010.40
2017-10-24T03:56:58.889Z,1010.45
2017-10-24T03:58:00.340Z,1010.40
2017-10-24T03:59:01.794Z,1010.40
2017-10-24T04:00:03.236Z,1010.42
2017-10-24T04:01:04.744Z,1010.38
2017-10-24T04:02:06.158Z,1010.35
2017-10-24T04:03:07.580Z,1010.30
2017-10-24T04:04:09.003Z,1010.34
2017-10-24T04:05:10.425Z,1010.29
2017-10-24T04:06:11.857Z,1010.27
2017-10-24T04:07:13.261Z,1010.29
2017-10-24T04:08:14.683Z,1010.27
2017-10-24T04:09:16.106Z,1010.27
2017-10-24T04:10:17.524Z,1010.31
2017-10-24T04:11:18.948Z,1010.29
2017-10-24T04:12:20.384Z,1010.27
2017-10-24T04:13:21.814Z,1010.26
2017-10-24T04:14:24.196Z,1010.27
2017-10-24T04:15:25.613Z,1010.25
2017-10-24T04:16:27.026Z,1010.25
2017-10-24T04:17:28.444Z,1010.31
2017-10-24T04:18:29.857Z,1010.25
2017-10-24T04:19:31.278Z,1010.28
2017-10-24T04:20:32.691Z,1010.27
2017-10-24T04:21:34.104Z,1010.24
2017-10-24T04:22:35.522Z,1010.23
2017-10-24T04:23:36.949Z,1010.21
2017-10-24T04:24:38.378Z,1010.27
2017-10-24T04:25:39.795Z,1010.26
2017-10-24T04:26:41.227Z,1010.25
2017-10-24T04:27:42.645Z,1010.28
2017-10-24T04:28:44.064Z,1010.34
2017-10-24T04:29:45.485Z,1010.31
2017-10-24T04:30:46.910Z,1010.30
2017-10-24T04:31:48.326Z,1010.27
2017-10-24T04:32:49.740Z,1010.24
2017-10-24T04:33:51.156Z,1010.21
2017-10-24T04:34:52.567Z,1010.23
2017-10-24T04:35:53.984Z,1010.22
2017-10-24T04:36:55.411Z,1010.26
2017-10-24T04:37:56.845Z,1010.23
2017-10-24T04:38:58.271Z,1010.22
2017-10-24T04:39:59.687Z,1010.22
2017-10-24T04:41:01.119Z,1010.18
2017-10-24T04:42:02.545Z,1010.16
2017-10-24T04:43:03.959Z,1010.17
2017-10-24T04:44:05.466Z,1010.17
2017-10-24T04:45:06.900Z,1010.17
2017-10-24T04:46:08.315Z,1010.24
2017-10-24T04:47:09.746Z,1010.18
2017-10-24T04:48:11.168Z,1010.27
2017-10-24T04:49:12.587Z,1010.24
2017-10-24T04:50:14.016Z,1010.23
2017-10-24T04:51:15.438Z,1010.30
2017-10-24T04:52:16.865Z,1010.30
2017-10-24T04:53:18.279Z,1010.32
2017-10-24T04:54:19.706Z,1010.33
2017-10-24T04:55:21.127Z,1010.37
2017-10-24T04:56:22.563Z,1010.32
2017-10-24T04:57:23.971Z,1010.31
2017-10-24T04:58:25.388Z,1010.33
2017-10-24T04:59:26.802Z,1010.27
2017-10-24T05:00:28.237Z,1010.28
2017-10-24T05:01:29.604Z,1010.26
2017-10-24T05:02:31.025Z,1010.28
2017-10-24T05:03:32.452Z,1010.30
2017-10-24T05:04:33.870Z,1010.26
2017-10-24T05:05:35.296Z,1010.24
2017-10-24T05:06:36.721Z,1010.21
2017-10-24T05:07:38.150Z,1010.25
2017-10-24T05:08:39.567Z,1010.21
2017-10-24T05:09:40.987Z,1010.25
2017-10-24T05:10:42.405Z,1010.26
2017-10-24T05:11:43.825Z,1010.30
2017-10-24T05:12:45.272Z,1010.26
2017-10-24T05:13:46.690Z,1010.27
2017-10-24T05:14:48.110Z,1010.25
2017-10-24T05:15:49.524Z,1010.27
2017-10-24T05:16:50.944Z,1010.23
2017-10-24T05:17:52.364Z,1010.20
2017-10-24T05:18:53.799Z,1010.18
2017-10-24T05:19:55.201Z,1010.13
2017-10-24T05:20:56.608Z,1010.18
2017-10-24T05:21:58.030Z,1010.16
2017-10-24T05:22:59.453Z,1010.14
2017-10-24T05:24:00.868Z,1010.21
2017-10-24T05:25:02.286Z,1010.19
2017-10-24T05:26:03.711Z,1010.23
2017-10-24T05:27:05.137Z,1010.21
2017-10-24T05:28:06.562Z,1010.21
2017-10-24T05:29:07.994Z,1010.21
2017-10-24T05:30:09.417Z,1010.12
2017-10-24T05:31:10.834Z,1010.13
2017-10-24T05:32:12.265Z,1010.13
2017-10-24T05:33:13.689Z,1010.13
2017-10-24T05:34:15.126Z,1010.20
2017-10-24T05:35:16.547Z,1010.19
2017-10-24T05:36:17.971Z,1010.17
2017-10-24T05:37:19.397Z,1010.21
2017-10-24T05:38:20.816Z,1010.11
2017-10-24T05:39:22.253Z,1010.12
2017-10-24T05:40:23.672Z,1010.11
2017-10-24T05:41:25.093Z,1010.10
2017-10-24T05:42:26.510Z,1010.14
2017-10-24T05:43:27.932Z,1010.13
2017-10-24T05:44:29.361Z,1010.15
2017-10-24T05:45:30.787Z,1010.07
2017-10-24T05:46:32.219Z,1010.03
2017-10-24T05:47:33.652Z,1010.10
2017-10-24T05:48:35.065Z,1010.03
2017-10-24T05:49:36.486Z,1010.02
2017-10-24T05:50:37.913Z,1010.05
2017-10-24T05:51:39.334Z,1010.06
2017-10-24T05:52:40.759Z,1010.04
2017-10-24T05:53:42.185Z,1010.06
2017-10-24T05:54:43.609Z,1010.05
2017-10-24T05:55:45.028Z,1010.02
2017-10-24T05:56:46.453Z,1010.06
2017-10-24T05:57:47.870Z,1010.02
2017-10-24T05:58:49.284Z,1010.06
2017-10-24T05:59:50.702Z,1010.03
2017-10-24T06:00:52.123Z,1010.06
2017-10-24T06:01:53.669Z,1010.05
2017-10-24T06:02:55.090Z,1010.06
2017-10-24T06:03:56.520Z,1010.04
2017-10-24T06:04:57.949Z,1010.10
2017-10-24T06:05:59.367Z,1010.06
2017-10-24T06:07:00.789Z,1010.10
2017-10-24T06:08:02.209Z,1010.11
2017-10-24T06:09:03.640Z,1010.14
2017-10-24T06:10:05.051Z,1010.12
2017-10-24T06:11:06.483Z,1010.19
2017-10-24T06:12:07.904Z,1010.21
2017-10-24T06:13:09.330Z,1010.16
2017-10-24T06:14:10.767Z,1010.23
2017-10-24T06:15:12.187Z,1010.22
2017-10-24T06:16:13.608Z,1010.23
2017-10-24T06:17:15.051Z,1010.23
2017-10-24T06:18:16.473Z,1010.22
2017-10-24T06:19:17.890Z,1010.19
2017-10-24T06:20:19.320Z,1010.21
2017-10-24T06:21:20.753Z,1010.19
2017-10-24T06:22:22.156Z,1010.20
2017-10-24T06:23:23.579Z,1010.22
2017-10-24T06:24:24.997Z,1010.25
2017-10-24T06:25:26.426Z,1010.27
2017-10-24T06:26:27.852Z,1010.26
2017-10-24T06:27:29.276Z,1010.32
2017-10-24T06:28:30.709Z,1010.33
2017-10-24T06:29:32.127Z,1010.37
2017-10-24T06:30:33.541Z,1010.33
2017-10-24T06:31:34.957Z,1010.32
2017-10-24T06:32:36.373Z,1010.35
2017-10-24T06:33:37.807Z,1010.30
2017-10-24T06:34:39.224Z,1010.30
2017-10-24T06:35:40.650Z,1010.37
2017-10-24T06:36:42.064Z,1010.35
2017-10-24T06:37:43.511Z,1010.42
2017-10-24T06:38:44.936Z,1010.42
2017-10-24T06:39:46.369Z,1010.44
2017-10-24T06:40:47.788Z,1010.40
2017-10-24T06:41:49.209Z,1010.48
2017-10-24T06:42:50.635Z,1010.49
2017-10-24T06:43:52.056Z,1010.49
2017-10-24T06:44:53.525Z,1010.49
2017-10-24T06:45:54.953Z,1010.52
2017-10-24T06:46:56.380Z,1010.57
2017-10-24T06:47:57.802Z,1010.60
2017-10-24T06:48:59.225Z,1010.62
2017-10-24T06:50:00.657Z,1010.68
2017-10-24T06:51:02.079Z,1010.67
2017-10-24T06:52:03.514Z,1010.70
2017-10-24T06:53:04.940Z,1010.71
2017-10-24T06:54:06.361Z,1010.71
2017-10-24T06:55:07.781Z,1010.71
2017-10-24T06:56:09.200Z,1010.69
2017-10-24T06:57:10.627Z,1010.74
2017-10-24T06:58:12.053Z,1010.79
2017-10-24T06:59:13.468Z,1010.77
2017-10-24T07:00:14.889Z,1010.79
2017-10-24T07:01:16.321Z,1010.81
2017-10-24T07:02:17.748Z,1010.86
2017-10-24T07:03:19.183Z,1010.83
2017-10-24T07:04:20.602Z,1010.82
2017-10-24T07:05:22.026Z,1010.82
2017-10-24T07:06:23.459Z,1010.84
2017-10-24T07:07:24.883Z,1010.79
2017-10-24T07:08:26.307Z,1010.78
2017-10-24T07:09:27.727Z,1010.75
2017-10-24T07:10:29.156Z,1010.69
2017-10-24T07:11:30.585Z,1010.70
2017-10-24T07:12:32.013Z,1010.66
2017-10-24T07:13:33.439Z,1010.59
2017-10-24T07:14:34.868Z,1010.55
2017-10-24T07:15:36.298Z,1010.55
2017-10-24T07:16:37.730Z,1010.57
2017-10-24T07:17:39.167Z,1010.56
2017-10-24T07:18:40.588Z,1010.57
2017-10-24T07:19:42.009Z,1010.59
2017-10-24T07:20:43.448Z,1010.59
2017-10-24T07:21:44.870Z,1010.63
2017-10-24T07:22:46.300Z,1010.58
2017-10-24T07:23:47.727Z,1010.56
2017-10-24T07:24:49.155Z,1010.59
2017-10-24T07:25:50.583Z,1010.63
2017-10-24T07:26:51.998Z,1010.66
2017-10-24T07:27:53.422Z,1010.69
2017-10-24T07:28:54.863Z,1010.67
2017-10-24T07:29:56.288Z,1010.71
2017-10-24T07:30:57.711Z,1010.73
2017-10-24T07:31:59.165Z,1010.73
2017-10-24T07:33:00.605Z,1010.73
2017-10-24T07:34:02.025Z,1010.72
2017-10-24T07:35:03.462Z,1010.71
2017-10-24T07:36:04.882Z,1010.70
2017-10-24T07:37:06.307Z,1010.65
2017-10-24T07:38:07.737Z,1010.68
2017-10-24T07:39:09.167Z,1010.69
2017-10-24T07:40:10.583Z,1010.69
2017-10-24T07:41:12.010Z,1010.67
2017-10-24T07:42:13.437Z,1010.67
2017-10-24T07:43:14.863Z,1010.67
2017-10-24T07:44:16.290Z,1010.67
2017-10-24T07:45:17.720Z,1010.67
2017-10-24T07:46:19.138Z,1010.67
2017-10-24T07:47:20.561Z,1010.68
2017-10-24T07:48:21.987Z,1010.65
2017-10-24T07:49:23.404Z,1010.62
2017-10-24T07:50:24.821Z,1010.69
2017-10-24T07:51:26.253Z,1010.62
2017-10-24T07:52:27.684Z,1010.67
2017-10-24T07:53:29.108Z,1010.73
2017-10-24T07:54:30.531Z,1010.68
2017-10-24T07:55:31.969Z,1010.70
2017-10-24T07:56:33.396Z,1010.68
2017-10-24T07:57:34.818Z,1010.68
2017-10-24T07:58:36.241Z,1010.66
2017-10-24T07:59:37.662Z,1010.66
2017-10-24T08:00:39.097Z,1010.66
2017-10-24T08:01:40.523Z,1010.63
2017-10-24T08:02:41.948Z,1010.64
2017-10-24T08:03:43.373Z,1010.59
2017-10-24T08:04:44.798Z,1010.58
2017-10-24T08:05:46.221Z,1010.63
2017-10-24T08:06:47.647Z,1010.62
2017-10-24T08:07:49.071Z,1010.57
2017-10-24T08:08:50.491Z,1010.59
2017-10-24T08:09:51.918Z,1010.63
2017-10-24T08:10:53.352Z,1010.60
2017-10-24T08:11:54.775Z,1010.62
2017-10-24T08:12:56.200Z,1010.61
2017-10-24T08:13:57.621Z,1010.67
2017-10-24T08:14:59.050Z,1010.69
2017-10-24T08:16:00.482Z,1010.68
2017-10-24T08:17:01.907Z,1010.73
2017-10-24T08:18:03.339Z,1010.71
2017-10-24T08:19:04.754Z,1010.69
2017-10-24T08:20:06.195Z,1010.73
2017-10-24T08:21:07.608Z,1010.84
2017-10-24T08:22:09.036Z,1010.76
2017-10-24T08:23:10.463Z,1010.76
2017-10-24T08:24:11.891Z,1010.76
2017-10-24T08:25:13.425Z,1010.77
2017-10-24T08:26:14.855Z,1010.81
2017-10-24T08:27:16.384Z,1010.73
2017-10-24T08:28:17.804Z,1010.75
2017-10-24T08:29:19.272Z,1010.71
2017-10-24T08:30:20.697Z,1010.74
2017-10-24T08:31:22.130Z,1010.78
2017-10-24T08:32:23.631Z,1010.74
2017-10-24T08:33:25.059Z,1010.73
2017-10-24T08:34:26.494Z,1010.76
2017-10-24T08:35:27.906Z,1010.72
2017-10-24T08:36:29.326Z,1010.71
2017-10-24T08:37:30.750Z,1010.71
2017-10-24T08:38:32.184Z,1010.73
2017-10-24T08:39:33.610Z,1010.76
2017-10-24T08:40:35.038Z,1010.72
2017-10-24T08:41:36.461Z,1010.69
2017-10-24T08:42:37.890Z,1010.66
2017-10-24T08:43:39.321Z,1010.70
2017-10-24T08:44:40.750Z,1010.66
2017-10-24T08:45:42.168Z,1010.67
2017-10-24T08:46:43.584Z,1010.66
2017-10-24T08:47:45.021Z,1010.67
2017-10-24T08:48:46.450Z,1010.66
2017-10-24T08:49:47.879Z,1010.70
2017-10-24T08:50:49.310Z,1010.67
2017-10-24T08:51:50.727Z,1010.72
2017-10-24T08:52:52.152Z,1010.68
2017-10-24T08:53:53.578Z,1010.68
2017-10-24T08:54:54.999Z,1010.68
2017-10-24T08:55:56.428Z,1010.70
2017-10-24T08:56:57.855Z,1010.70
2017-10-24T08:57:59.278Z,1010.73
2017-10-24T08:59:00.700Z,1010.69
2017-10-24T09:00:02.129Z,1010.69
2017-10-24T09:01:03.557Z,1010.71
2017-10-24T09:02:04.979Z,1010.69
2017-10-24T09:03:06.404Z,1010.74
2017-10-24T09:04:07.818Z,1010.76
2017-10-24T09:05:09.240Z,1010.77
2017-10-24T09:06:10.674Z,1010.75
2017-10-24T09:07:12.103Z,1010.76
2017-10-24T09:08:13.508Z,1010.75
2017-10-24T09:09:14.942Z,1010.68
2017-10-24T09:10:16.362Z,1010.71
2017-10-24T09:11:17.791Z,1010.64
2017-10-24T09:12:19.205Z,1010.63
2017-10-24T09:13:20.636Z,1010.59
2017-10-24T09:14:22.075Z,1010.55
2017-10-24T09:15:23.495Z,1010.49
2017-10-24T09:16:24.918Z,1010.49
2017-10-24T09:17:26.350Z,1010.48
2017-10-24T09:18:27.775Z,1010.46
2017-10-24T09:19:29.257Z,1010.51
2017-10-24T09:20:30.684Z,1010.59
2017-10-24T09:21:32.160Z,1010.57
2017-10-24T09:22:33.608Z,1010.66
2017-10-24T09:23:35.025Z,1010.61
2017-10-24T09:24:36.460Z,1010.65
2017-10-24T09:25:37.879Z,1010.62
2017-10-24T09:26:39.316Z,1010.66
2017-10-24T09:27:40.743Z,1010.67
2017-10-24T09:28:42.182Z,1010.69
2017-10-24T09:29:43.612Z,1010.65
2017-10-24T09:30:45.836Z,1010.61
2017-10-24T09:31:47.260Z,1010.62
2017-10-24T09:32:48.677Z,1010.68
2017-10-24T09:33:50.101Z,1010.66
2017-10-24T09:34:51.522Z,1010.68
2017-10-24T09:35:52.957Z,1010.64
2017-10-24T09:36:54.389Z,1010.68
2017-10-24T09:37:55.809Z,1010.66
2017-10-24T09:38:57.233Z,1010.66
2017-10-24T09:39:58.668Z,1010.64
2017-10-24T09:41:00.091Z,1010.67
2017-10-24T09:42:01.518Z,1010.69
2017-10-24T09:43:02.946Z,1010.68
2017-10-24T09:44:04.377Z,1010.75
2017-10-24T09:45:05.825Z,1010.73
2017-10-24T09:46:07.259Z,1010.71
2017-10-24T09:47:08.691Z,1010.70
2017-10-24T09:48:10.120Z,1010.71
2017-10-24T09:49:11.540Z,1010.76
2017-10-24T09:50:12.963Z,1010.80
2017-10-24T09:51:14.383Z,1010.81
2017-10-24T09:52:15.813Z,1010.84
2017-10-24T09:53:17.242Z,1010.78
2017-10-24T09:54:18.678Z,1010.83
2017-10-24T09:55:20.103Z,1010.87
2017-10-24T09:56:21.532Z,1010.90
2017-10-24T09:57:22.970Z,1010.89
2017-10-24T09:58:24.393Z,1010.90
2017-10-24T09:59:25.816Z,1010.89
2017-10-24T10:00:27.252Z,1010.88
2017-10-24T10:01:28.680Z,1010.86
2017-10-24T10:02:30.114Z,1010.86
2017-10-24T10:03:31.550Z,1010.85
2017-10-24T10:04:32.981Z,1010.88
2017-10-24T10:05:34.416Z,1010.86
2017-10-24T10:06:35.854Z,1010.88
2017-10-24T10:07:37.281Z,1010.83
2017-10-24T10:08:38.768Z,1010.77
2017-10-24T10:09:40.195Z,1010.79
2017-10-24T10:10:41.623Z,1010.76
2017-10-24T10:11:43.050Z,1010.80
2017-10-24T10:12:44.483Z,1010.74
2017-10-24T10:13:45.869Z,1010.78
2017-10-24T10:14:47.300Z,1010.79
2017-10-24T10:15:48.743Z,1010.76
2017-10-24T10:16:50.179Z,1010.79
2017-10-24T10:17:51.596Z,1010.78
2017-10-24T10:18:53.025Z,1010.69
2017-10-24T10:19:54.448Z,1010.69
2017-10-24T10:20:55.883Z,1010.71
2017-10-24T10:21:57.308Z,1010.69
2017-10-24T10:22:58.756Z,1010.66
2017-10-24T10:24:00.178Z,1010.59
2017-10-24T10:25:01.600Z,1010.60
2017-10-24T10:26:03.028Z,1010.63
2017-10-24T10:27:04.457Z,1010.54
2017-10-24T10:28:05.881Z,1010.52
2017-10-24T10:29:07.311Z,1010.48
2017-10-24T10:30:08.748Z,1010.52
2017-10-24T10:31:10.174Z,1010.50
2017-10-24T10:32:11.608Z,1010.48
2017-10-24T10:33:13.053Z,1010.51
2017-10-24T10:34:14.461Z,1010.47
2017-10-24T10:35:15.890Z,1010.47
2017-10-24T10:36:17.341Z,1010.50
2017-10-24T10:37:18.758Z,1010.49
2017-10-24T10:38:20.190Z,1010.44
2017-10-24T10:39:21.628Z,1010.43
2017-10-24T10:40:23.042Z,1010.52
2017-10-24T10:41:24.469Z,1010.52
2017-10-24T10:42:25.898Z,1010.55
2017-10-24T10:43:27.334Z,1010.61
2017-10-24T10:44:28.765Z,1010.57
2017-10-24T10:45:30.195Z,1010.59
2017-10-24T10:46:31.625Z,1010.59
2017-10-24T10:47:33.051Z,1010.57
2017-10-24T10:48:34.478Z,1010.57
2017-10-24T10:49:35.913Z,1010.59
2017-10-24T10:50:37.349Z,1010.63
2017-10-24T10:51:38.746Z,1010.58
2017-10-24T10:52:40.175Z,1010.64
2017-10-24T10:53:41.612Z,1010.56
2017-10-24T10:54:43.033Z,1010.54
2017-10-24T10:55:44.461Z,1010.47
2017-10-24T10:56:45.892Z,1010.52
2017-10-24T10:57:47.320Z,1010.53
2017-10-24T10:58:48.747Z,1010.55
2017-10-24T10:59:50.170Z,1010.56
2017-10-24T11:00:51.599Z,1010.49
2017-10-24T11:01:53.035Z,1010.54
2017-10-24T11:02:54.522Z,1010.51
2017-10-24T11:03:55.949Z,1010.48
2017-10-24T11:04:57.376Z,1010.44
2017-10-24T11:05:58.804Z,1010.44
2017-10-24T11:07:00.235Z,1010.41
2017-10-24T11:08:01.662Z,1010.43
2017-10-24T11:09:03.092Z,1010.42
2017-10-24T11:10:04.523Z,1010.45
2017-10-24T11:11:05.951Z,1010.48
2017-10-24T11:12:10.056Z,1010.46
2017-10-24T11:13:11.490Z,1010.47
2017-10-24T11:14:12.932Z,1010.46
2017-10-24T11:15:14.381Z,1010.41
2017-10-24T11:16:15.818Z,1010.36
2017-10-24T11:17:17.238Z,1010.33
2017-10-24T11:18:18.661Z,1010.29
2017-10-24T11:19:20.146Z,1010.32
2017-10-24T11:20:21.569Z,1010.27
2017-10-24T11:21:23.013Z,1010.24
2017-10-24T11:22:24.437Z,1010.26
2017-10-24T11:23:25.864Z,1010.29
2017-10-24T11:24:27.302Z,1010.26
2017-10-24T11:25:28.733Z,1010.22
2017-10-24T11:26:30.157Z,1010.21
2017-10-24T11:27:31.577Z,1010.24
2017-10-24T11:28:33.009Z,1010.25
2017-10-24T11:29:35.335Z,1010.27
2017-10-24T11:30:36.765Z,1010.21
2017-10-24T11:31:38.218Z,1010.23
2017-10-24T11:32:39.629Z,1010.18
2017-10-24T11:33:41.061Z,1010.14
2017-10-24T11:34:42.488Z,1010.17
2017-10-24T11:35:43.918Z,1010.21
2017-10-24T11:36:45.340Z,1010.18
2017-10-24T11:37:46.771Z,1010.11
2017-10-24T11:38:48.193Z,1010.15
2017-10-24T11:39:49.628Z,1010.09
2017-10-24T11:40:51.046Z,1009.99
2017-10-24T11:41:52.468Z,1010.05
2017-10-24T11:42:53.894Z,1009.98
2017-10-24T11:43:55.360Z,1009.96
2017-10-24T11:44:56.789Z,1009.99
2017-10-24T11:45:58.212Z,1009.95
2017-10-24T11:46:59.634Z,1009.96
2017-10-24T11:48:01.057Z,1009.97
2017-10-24T11:49:02.488Z,1009.97
2017-10-24T11:50:03.913Z,1010.01
2017-10-24T11:51:05.338Z,1009.95
2017-10-24T11:52:06.764Z,1009.96
2017-10-24T11:53:08.196Z,1009.98
2017-10-24T11:54:09.620Z,1009.95
2017-10-24T11:55:11.045Z,1009.91
2017-10-24T11:56:12.468Z,1009.93
2017-10-24T11:57:13.901Z,1009.94
2017-10-24T11:58:15.331Z,1009.90
2017-10-24T11:59:16.764Z,1009.91
2017-10-24T12:00:18.205Z,1009.91
2017-10-24T12:01:19.637Z,1009.98
2017-10-24T12:02:21.063Z,1009.95
2017-10-24T12:03:22.497Z,1009.97
2017-10-24T12:04:23.917Z,1009.94
2017-10-24T12:05:25.339Z,1009.93
2017-10-24T12:06:26.760Z,1009.89
2017-10-24T12:07:28.181Z,1009.91
2017-10-24T12:08:29.605Z,1009.84
2017-10-24T12:09:31.032Z,1009.86
2017-10-24T12:10:32.456Z,1009.87
2017-10-24T12:11:33.884Z,1009.85
2017-10-24T12:12:35.317Z,1009.90
2017-10-24T12:13:36.747Z,1009.86
2017-10-24T12:14:38.186Z,1009.93
2017-10-24T12:15:39.613Z,1009.92
2017-10-24T12:16:41.043Z,1009.94
2017-10-24T12:17:42.484Z,1009.87
2017-10-24T12:18:43.909Z,1009.91
2017-10-24T12:19:45.341Z,1009.87
2017-10-24T12:20:46.765Z,1009.88
2017-10-24T12:21:48.202Z,1009.88
2017-10-24T12:22:49.641Z,1009.83